sensor_id;sensor_type;location;lat;lon;timestamp;P1;durP1;ratioP1;P2;durP2;ratioP2
60472;SDS011;46318;52.716;6.444;2023-03-31T00:01:35;18.55;;;4.20;;
60472;SDS011;46318;52.716;6.444;2023-03-31T00:04:06;22.02;;;4.57;;
60472;SDS011;46318;52.716;6.444;2023-03-31T00:06:36;16.85;;;3.83;;
60472;SDS011;46318;52.716;6.444;2023-03-31T00:09:07;20.27;;;4.07;;
60472;SDS011;46318;52.716;6.444;2023-03-31T00:11:43;19.20;;;4.55;;
60472;SDS011;46318;52.716;6.444;2023-03-31T00:14:09;20.35;;;4.53;;
60472;SDS011;46318;52.716;6.444;2023-03-31T00:16:36;16.50;;;4.20;;
60472;SDS011;46318;52.716;6.444;2023-03-31T00:19:03;17.77;;;3.53;;
60472;SDS011;46318;52.716;6.444;2023-03-31T00:21:34;20.40;;;4.38;;
60472;SDS011;46318;52.716;6.444;2023-03-31T00:24:08;17.25;;;3.80;;
60472;SDS011;46318;52.716;6.444;2023-03-31T00:26:35;17.65;;;4.07;;
60472;SDS011;46318;52.716;6.444;2023-03-31T00:29:03;17.00;;;3.95;;
60472;SDS011;46318;52.716;6.444;2023-03-31T00:31:30;18.45;;;4.43;;
60472;SDS011;46318;52.716;6.444;2023-03-31T00:33:57;19.80;;;3.88;;
60472;SDS011;46318;52.716;6.444;2023-03-31T00:36:23;19.63;;;3.85;;
60472;SDS011;46318;52.716;6.444;2023-03-31T00:38:53;17.13;;;4.38;;
60472;SDS011;46318;52.716;6.444;2023-03-31T00:41:24;20.48;;;4.68;;
60472;SDS011;46318;52.716;6.444;2023-03-31T00:44:11;21.73;;;3.88;;
60472;SDS011;46318;52.716;6.444;2023-03-31T00:47:02;21.95;;;4.50;;
60472;SDS011;46318;52.716;6.444;2023-03-31T00:49:44;16.73;;;3.70;;
60472;SDS011;46318;52.716;6.444;2023-03-31T00:52:17;17.10;;;4.20;;
60472;SDS011;46318;52.716;6.444;2023-03-31T00:54:58;16.35;;;3.80;;
60472;SDS011;46318;52.716;6.444;2023-03-31T00:57:29;18.15;;;4.03;;
60472;SDS011;46318;52.716;6.444;2023-03-31T01:00:04;14.07;;;3.75;;
60472;SDS011;46318;52.716;6.444;2023-03-31T01:02:40;20.05;;;4.20;;
60472;SDS011;46318;52.716;6.444;2023-03-31T01:05:19;18.67;;;3.65;;
60472;SDS011;46318;52.716;6.444;2023-03-31T01:08:14;13.32;;;4.10;;
60472;SDS011;46318;52.716;6.444;2023-03-31T01:10:44;18.17;;;4.25;;
60472;SDS011;46318;52.716;6.444;2023-03-31T01:13:14;19.55;;;4.05;;
60472;SDS011;46318;52.716;6.444;2023-03-31T01:15:41;16.98;;;4.25;;
60472;SDS011;46318;52.716;6.444;2023-03-31T01:18:08;21.10;;;5.22;;
60472;SDS011;46318;52.716;6.444;2023-03-31T01:20:48;17.92;;;4.15;;
60472;SDS011;46318;52.716;6.444;2023-03-31T01:38:23;17.25;;;4.10;;
60472;SDS011;46318;52.716;6.444;2023-03-31T01:47:01;14.48;;;4.30;;
60472;SDS011;46318;52.716;6.444;2023-03-31T01:50:25;14.40;;;4.78;;
60472;SDS011;46318;52.716;6.444;2023-03-31T01:55:06;15.18;;;4.55;;
60472;SDS011;46318;52.716;6.444;2023-03-31T01:57:44;11.55;;;4.07;;
60472;SDS011;46318;52.716;6.444;2023-03-31T02:00:16;14.70;;;4.45;;
60472;SDS011;46318;52.716;6.444;2023-03-31T02:02:49;14.73;;;4.65;;
60472;SDS011;46318;52.716;6.444;2023-03-31T02:05:51;15.77;;;4.70;;
60472;SDS011;46318;52.716;6.444;2023-03-31T02:08:25;12.93;;;4.30;;
60472;SDS011;46318;52.716;6.444;2023-03-31T02:11:02;14.07;;;4.32;;
60472;SDS011;46318;52.716;6.444;2023-03-31T02:13:28;11.48;;;4.38;;
60472;SDS011;46318;52.716;6.444;2023-03-31T02:15:59;12.82;;;4.53;;
60472;SDS011;46318;52.716;6.444;2023-03-31T02:18:31;13.65;;;4.25;;
60472;SDS011;46318;52.716;6.444;2023-03-31T02:21:02;18.70;;;4.20;;
60472;SDS011;46318;52.716;6.444;2023-03-31T02:23:32;15.25;;;4.95;;
60472;SDS011;46318;52.716;6.444;2023-03-31T02:26:09;12.77;;;4.60;;
60472;SDS011;46318;52.716;6.444;2023-03-31T02:34:05;12.52;;;4.72;;
60472;SDS011;46318;52.716;6.444;2023-03-31T02:36:32;13.15;;;4.60;;
60472;SDS011;46318;52.716;6.444;2023-03-31T02:39:01;15.45;;;4.97;;
60472;SDS011;46318;52.716;6.444;2023-03-31T02:41:34;13.98;;;4.88;;
60472;SDS011;46318;52.716;6.444;2023-03-31T02:44:00;13.23;;;5.00;;
60472;SDS011;46318;52.716;6.444;2023-03-31T02:46:27;13.05;;;4.68;;
60472;SDS011;46318;52.716;6.444;2023-03-31T02:48:54;12.32;;;5.18;;
60472;SDS011;46318;52.716;6.444;2023-03-31T02:54:56;11.40;;;4.57;;
60472;SDS011;46318;52.716;6.444;2023-03-31T03:05:57;10.00;;;4.72;;
60472;SDS011;46318;52.716;6.444;2023-03-31T03:14:33;11.15;;;5.68;;
60472;SDS011;46318;52.716;6.444;2023-03-31T03:17:06;13.90;;;5.93;;
60472;SDS011;46318;52.716;6.444;2023-03-31T03:19:55;8.95;;;5.50;;
60472;SDS011;46318;52.716;6.444;2023-03-31T03:22:25;14.82;;;6.40;;
60472;SDS011;46318;52.716;6.444;2023-03-31T03:24:51;10.90;;;6.43;;
60472;SDS011;46318;52.716;6.444;2023-03-31T03:27:18;14.27;;;5.65;;
60472;SDS011;46318;52.716;6.444;2023-03-31T03:29:48;10.13;;;6.35;;
60472;SDS011;46318;52.716;6.444;2023-03-31T03:32:13;15.63;;;6.07;;
60472;SDS011;46318;52.716;6.444;2023-03-31T03:34:39;9.68;;;5.55;;
60472;SDS011;46318;52.716;6.444;2023-03-31T03:37:05;14.75;;;6.22;;
60472;SDS011;46318;52.716;6.444;2023-03-31T03:39:31;10.07;;;5.47;;
60472;SDS011;46318;52.716;6.444;2023-03-31T03:41:57;10.52;;;5.15;;
60472;SDS011;46318;52.716;6.444;2023-03-31T03:44:23;10.77;;;5.28;;
60472;SDS011;46318;52.716;6.444;2023-03-31T03:46:49;10.40;;;5.45;;
60472;SDS011;46318;52.716;6.444;2023-03-31T03:49:15;10.63;;;5.43;;
60472;SDS011;46318;52.716;6.444;2023-03-31T03:51:41;12.27;;;5.45;;
60472;SDS011;46318;52.716;6.444;2023-03-31T03:54:07;10.90;;;5.20;;
60472;SDS011;46318;52.716;6.444;2023-03-31T03:56:33;9.30;;;5.38;;
60472;SDS011;46318;52.716;6.444;2023-03-31T03:58:58;11.45;;;5.38;;
60472;SDS011;46318;52.716;6.444;2023-03-31T04:01:24;9.13;;;5.13;;
60472;SDS011;46318;52.716;6.444;2023-03-31T04:03:50;13.07;;;4.97;;
60472;SDS011;46318;52.716;6.444;2023-03-31T04:06:16;10.38;;;5.07;;
60472;SDS011;46318;52.716;6.444;2023-03-31T04:08:42;11.95;;;5.70;;
60472;SDS011;46318;52.716;6.444;2023-03-31T04:11:17;12.40;;;4.80;;
60472;SDS011;46318;52.716;6.444;2023-03-31T04:13:44;15.18;;;4.75;;
60472;SDS011;46318;52.716;6.444;2023-03-31T04:16:11;8.70;;;4.65;;
60472;SDS011;46318;52.716;6.444;2023-03-31T04:18:37;10.35;;;5.15;;
60472;SDS011;46318;52.716;6.444;2023-03-31T04:21:13;14.10;;;5.13;;
60472;SDS011;46318;52.716;6.444;2023-03-31T04:23:46;15.43;;;5.43;;
60472;SDS011;46318;52.716;6.444;2023-03-31T04:29:07;15.90;;;5.18;;
60472;SDS011;46318;52.716;6.444;2023-03-31T04:31:38;10.30;;;4.43;;
60472;SDS011;46318;52.716;6.444;2023-03-31T04:34:08;15.77;;;4.88;;
60472;SDS011;46318;52.716;6.444;2023-03-31T04:36:40;9.48;;;4.63;;
60472;SDS011;46318;52.716;6.444;2023-03-31T04:39:11;14.55;;;4.80;;
60472;SDS011;46318;52.716;6.444;2023-03-31T04:41:39;12.15;;;4.82;;
60472;SDS011;46318;52.716;6.444;2023-03-31T04:44:05;11.52;;;5.05;;
60472;SDS011;46318;52.716;6.444;2023-03-31T04:46:32;9.50;;;4.43;;
60472;SDS011;46318;52.716;6.444;2023-03-31T04:48:59;10.00;;;5.43;;
60472;SDS011;46318;52.716;6.444;2023-03-31T04:51:26;10.52;;;4.38;;
60472;SDS011;46318;52.716;6.444;2023-03-31T04:53:53;11.43;;;4.78;;
60472;SDS011;46318;52.716;6.444;2023-03-31T04:56:19;8.75;;;4.78;;
60472;SDS011;46318;52.716;6.444;2023-03-31T04:58:46;13.38;;;4.82;;
60472;SDS011;46318;52.716;6.444;2023-03-31T05:01:12;11.35;;;5.22;;
60472;SDS011;46318;52.716;6.444;2023-03-31T05:03:42;9.10;;;4.93;;
60472;SDS011;46318;52.716;6.444;2023-03-31T05:06:09;10.15;;;4.97;;
60472;SDS011;46318;52.716;6.444;2023-03-31T05:08:35;14.32;;;5.55;;
60472;SDS011;46318;52.716;6.444;2023-03-31T05:11:01;11.98;;;5.55;;
60472;SDS011;46318;52.716;6.444;2023-03-31T05:13:28;11.20;;;5.10;;
60472;SDS011;46318;52.716;6.444;2023-03-31T05:15:55;9.30;;;5.28;;
60472;SDS011;46318;52.716;6.444;2023-03-31T05:18:20;12.35;;;5.78;;
60472;SDS011;46318;52.716;6.444;2023-03-31T05:20:46;14.43;;;5.68;;
60472;SDS011;46318;52.716;6.444;2023-03-31T05:23:12;10.95;;;5.63;;
60472;SDS011;46318;52.716;6.444;2023-03-31T05:25:39;11.80;;;5.55;;
60472;SDS011;46318;52.716;6.444;2023-03-31T05:28:06;12.40;;;5.25;;
60472;SDS011;46318;52.716;6.444;2023-03-31T05:30:34;9.80;;;5.22;;
60472;SDS011;46318;52.716;6.444;2023-03-31T05:33:00;11.93;;;5.25;;
60472;SDS011;46318;52.716;6.444;2023-03-31T05:35:26;11.48;;;4.88;;
60472;SDS011;46318;52.716;6.444;2023-03-31T05:37:52;11.23;;;5.32;;
60472;SDS011;46318;52.716;6.444;2023-03-31T05:40:17;10.68;;;5.90;;
60472;SDS011;46318;52.716;6.444;2023-03-31T05:42:43;13.90;;;5.75;;
60472;SDS011;46318;52.716;6.444;2023-03-31T05:45:09;17.08;;;6.95;;
60472;SDS011;46318;52.716;6.444;2023-03-31T05:47:35;12.73;;;5.75;;
60472;SDS011;46318;52.716;6.444;2023-03-31T05:50:01;9.50;;;5.53;;
60472;SDS011;46318;52.716;6.444;2023-03-31T05:52:31;13.32;;;5.85;;
60472;SDS011;46318;52.716;6.444;2023-03-31T05:54:57;12.77;;;5.45;;
60472;SDS011;46318;52.716;6.444;2023-03-31T05:57:23;7.88;;;5.07;;
60472;SDS011;46318;52.716;6.444;2023-03-31T05:59:49;10.65;;;4.78;;
60472;SDS011;46318;52.716;6.444;2023-03-31T06:02:15;11.68;;;5.22;;
60472;SDS011;46318;52.716;6.444;2023-03-31T06:04:41;13.10;;;5.00;;
60472;SDS011;46318;52.716;6.444;2023-03-31T06:07:07;9.05;;;4.50;;
60472;SDS011;46318;52.716;6.444;2023-03-31T06:09:34;10.15;;;4.03;;
60472;SDS011;46318;52.716;6.444;2023-03-31T06:12:00;9.77;;;4.22;;
60472;SDS011;46318;52.716;6.444;2023-03-31T06:14:26;11.00;;;4.07;;
60472;SDS011;46318;52.716;6.444;2023-03-31T06:16:52;8.48;;;4.05;;
60472;SDS011;46318;52.716;6.444;2023-03-31T06:19:18;11.23;;;4.70;;
60472;SDS011;46318;52.716;6.444;2023-03-31T06:21:44;10.18;;;4.30;;
60472;SDS011;46318;52.716;6.444;2023-03-31T06:24:10;7.90;;;4.40;;
60472;SDS011;46318;52.716;6.444;2023-03-31T06:26:36;10.90;;;4.60;;
60472;SDS011;46318;52.716;6.444;2023-03-31T06:29:02;12.57;;;4.63;;
60472;SDS011;46318;52.716;6.444;2023-03-31T06:31:27;8.85;;;4.65;;
60472;SDS011;46318;52.716;6.444;2023-03-31T06:33:53;9.93;;;4.40;;
60472;SDS011;46318;52.716;6.444;2023-03-31T06:36:20;9.82;;;4.68;;
60472;SDS011;46318;52.716;6.444;2023-03-31T06:38:47;9.98;;;4.97;;
60472;SDS011;46318;52.716;6.444;2023-03-31T06:41:14;10.05;;;4.55;;
60472;SDS011;46318;52.716;6.444;2023-03-31T06:43:42;12.57;;;4.72;;
60472;SDS011;46318;52.716;6.444;2023-03-31T06:46:08;14.65;;;5.30;;
60472;SDS011;46318;52.716;6.444;2023-03-31T06:48:34;10.05;;;5.20;;
60472;SDS011;46318;52.716;6.444;2023-03-31T06:51:01;9.00;;;4.97;;
60472;SDS011;46318;52.716;6.444;2023-03-31T06:53:29;10.00;;;4.38;;
60472;SDS011;46318;52.716;6.444;2023-03-31T06:55:56;10.05;;;4.60;;
60472;SDS011;46318;52.716;6.444;2023-03-31T06:58:22;9.82;;;4.50;;
60472;SDS011;46318;52.716;6.444;2023-03-31T07:00:48;9.93;;;4.97;;
60472;SDS011;46318;52.716;6.444;2023-03-31T07:03:14;11.60;;;4.97;;
60472;SDS011;46318;52.716;6.444;2023-03-31T07:05:49;10.77;;;5.05;;
60472;SDS011;46318;52.716;6.444;2023-03-31T07:08:17;9.48;;;4.60;;
60472;SDS011;46318;52.716;6.444;2023-03-31T07:10:43;10.88;;;5.15;;
60472;SDS011;46318;52.716;6.444;2023-03-31T07:13:14;15.18;;;5.25;;
60472;SDS011;46318;52.716;6.444;2023-03-31T07:15:41;12.20;;;5.47;;
60472;SDS011;46318;52.716;6.444;2023-03-31T07:18:07;11.73;;;4.97;;
60472;SDS011;46318;52.716;6.444;2023-03-31T07:20:33;15.07;;;5.20;;
60472;SDS011;46318;52.716;6.444;2023-03-31T07:23:02;16.85;;;5.57;;
60472;SDS011;46318;52.716;6.444;2023-03-31T07:25:29;10.75;;;5.40;;
60472;SDS011;46318;52.716;6.444;2023-03-31T07:27:56;11.48;;;5.32;;
60472;SDS011;46318;52.716;6.444;2023-03-31T07:30:22;12.05;;;5.63;;
60472;SDS011;46318;52.716;6.444;2023-03-31T07:32:49;10.85;;;5.97;;
60472;SDS011;46318;52.716;6.444;2023-03-31T07:35:16;11.40;;;5.05;;
60472;SDS011;46318;52.716;6.444;2023-03-31T07:37:44;10.63;;;4.75;;
60472;SDS011;46318;52.716;6.444;2023-03-31T07:40:14;15.95;;;5.30;;
60472;SDS011;46318;52.716;6.444;2023-03-31T07:42:52;11.93;;;4.63;;
60472;SDS011;46318;52.716;6.444;2023-03-31T07:45:19;13.43;;;5.00;;
60472;SDS011;46318;52.716;6.444;2023-03-31T07:47:47;7.90;;;3.90;;
60472;SDS011;46318;52.716;6.444;2023-03-31T07:50:14;7.57;;;4.53;;
60472;SDS011;46318;52.716;6.444;2023-03-31T07:52:41;11.48;;;4.60;;
60472;SDS011;46318;52.716;6.444;2023-03-31T07:55:07;10.68;;;4.50;;
60472;SDS011;46318;52.716;6.444;2023-03-31T07:57:35;12.45;;;4.30;;
60472;SDS011;46318;52.716;6.444;2023-03-31T08:00:02;8.88;;;3.53;;
60472;SDS011;46318;52.716;6.444;2023-03-31T08:02:31;11.30;;;4.03;;
60472;SDS011;46318;52.716;6.444;2023-03-31T08:04:57;7.95;;;4.00;;
60472;SDS011;46318;52.716;6.444;2023-03-31T08:07:23;7.82;;;3.95;;
60472;SDS011;46318;52.716;6.444;2023-03-31T08:09:50;10.35;;;3.60;;
60472;SDS011;46318;52.716;6.444;2023-03-31T08:12:16;11.57;;;4.40;;
60472;SDS011;46318;52.716;6.444;2023-03-31T08:14:41;8.20;;;3.58;;
60472;SDS011;46318;52.716;6.444;2023-03-31T08:17:08;12.27;;;4.25;;
60472;SDS011;46318;52.716;6.444;2023-03-31T08:19:35;11.27;;;4.18;;
60472;SDS011;46318;52.716;6.444;2023-03-31T08:22:02;10.10;;;3.75;;
60472;SDS011;46318;52.716;6.444;2023-03-31T08:24:28;8.75;;;3.60;;
60472;SDS011;46318;52.716;6.444;2023-03-31T08:26:53;8.93;;;3.60;;
60472;SDS011;46318;52.716;6.444;2023-03-31T08:29:20;7.95;;;3.55;;
60472;SDS011;46318;52.716;6.444;2023-03-31T08:31:45;8.10;;;3.88;;
60472;SDS011;46318;52.716;6.444;2023-03-31T08:34:11;9.63;;;4.00;;
60472;SDS011;46318;52.716;6.444;2023-03-31T08:36:37;9.82;;;3.92;;
60472;SDS011;46318;52.716;6.444;2023-03-31T08:39:03;8.00;;;4.00;;
60472;SDS011;46318;52.716;6.444;2023-03-31T08:44:37;5.22;;;3.40;;
60472;SDS011;46318;52.716;6.444;2023-03-31T08:47:20;6.90;;;3.25;;
60472;SDS011;46318;52.716;6.444;2023-03-31T08:49:51;9.32;;;3.60;;
60472;SDS011;46318;52.716;6.444;2023-03-31T08:52:23;6.38;;;3.20;;
60472;SDS011;46318;52.716;6.444;2023-03-31T08:54:57;7.25;;;3.92;;
60472;SDS011;46318;52.716;6.444;2023-03-31T08:57:29;6.55;;;3.30;;
60472;SDS011;46318;52.716;6.444;2023-03-31T09:00:09;8.18;;;4.07;;
60472;SDS011;46318;52.716;6.444;2023-03-31T09:02:51;6.22;;;3.28;;
60472;SDS011;46318;52.716;6.444;2023-03-31T09:05:49;6.70;;;2.90;;
60472;SDS011;46318;52.716;6.444;2023-03-31T09:11:10;5.13;;;2.40;;
60472;SDS011;46318;52.716;6.444;2023-03-31T09:16:40;8.35;;;2.90;;
60472;SDS011;46318;52.716;6.444;2023-03-31T09:19:36;6.10;;;3.10;;
60472;SDS011;46318;52.716;6.444;2023-03-31T09:22:21;8.85;;;3.15;;
60472;SDS011;46318;52.716;6.444;2023-03-31T09:25:02;5.65;;;2.75;;
60472;SDS011;46318;52.716;6.444;2023-03-31T09:27:40;5.93;;;2.92;;
60472;SDS011;46318;52.716;6.444;2023-03-31T09:30:13;4.35;;;2.47;;
60472;SDS011;46318;52.716;6.444;2023-03-31T09:35:44;5.65;;;2.78;;
60472;SDS011;46318;52.716;6.444;2023-03-31T09:38:10;6.93;;;2.45;;
60472;SDS011;46318;52.716;6.444;2023-03-31T09:40:38;5.88;;;2.42;;
60472;SDS011;46318;52.716;6.444;2023-03-31T09:43:23;4.00;;;2.53;;
60472;SDS011;46318;52.716;6.444;2023-03-31T09:45:55;5.45;;;2.60;;
60472;SDS011;46318;52.716;6.444;2023-03-31T09:48:22;4.15;;;2.90;;
60472;SDS011;46318;52.716;6.444;2023-03-31T09:50:59;6.70;;;3.05;;
60472;SDS011;46318;52.716;6.444;2023-03-31T09:53:39;4.05;;;2.58;;
60472;SDS011;46318;52.716;6.444;2023-03-31T09:56:43;5.63;;;2.70;;
60472;SDS011;46318;52.716;6.444;2023-03-31T09:59:18;6.53;;;2.53;;
60472;SDS011;46318;52.716;6.444;2023-03-31T10:01:48;7.15;;;2.50;;
60472;SDS011;46318;52.716;6.444;2023-03-31T10:04:22;4.10;;;2.35;;
60472;SDS011;46318;52.716;6.444;2023-03-31T10:06:50;6.05;;;2.60;;
60472;SDS011;46318;52.716;6.444;2023-03-31T10:09:18;3.15;;;2.10;;
60472;SDS011;46318;52.716;6.444;2023-03-31T10:11:51;4.18;;;2.50;;
60472;SDS011;46318;52.716;6.444;2023-03-31T10:15:00;5.55;;;2.40;;
60472;SDS011;46318;52.716;6.444;2023-03-31T10:17:22;6.15;;;2.40;;
60472;SDS011;46318;52.716;6.444;2023-03-31T10:19:50;5.03;;;2.55;;
60472;SDS011;46318;52.716;6.444;2023-03-31T10:24:46;5.63;;;2.63;;
60472;SDS011;46318;52.716;6.444;2023-03-31T10:29:50;6.93;;;2.60;;
60472;SDS011;46318;52.716;6.444;2023-03-31T10:32:25;5.43;;;2.50;;
60472;SDS011;46318;52.716;6.444;2023-03-31T10:35:44;5.50;;;2.72;;
60472;SDS011;46318;52.716;6.444;2023-03-31T10:37:57;7.57;;;2.85;;
60472;SDS011;46318;52.716;6.444;2023-03-31T10:40:31;5.05;;;2.67;;
60472;SDS011;46318;52.716;6.444;2023-03-31T10:43:03;3.33;;;2.55;;
60472;SDS011;46318;52.716;6.444;2023-03-31T10:45:51;6.60;;;2.85;;
60472;SDS011;46318;52.716;6.444;2023-03-31T10:48:27;6.40;;;3.00;;
60472;SDS011;46318;52.716;6.444;2023-03-31T10:51:03;7.53;;;2.90;;
60472;SDS011;46318;52.716;6.444;2023-03-31T10:53:48;2.80;;;2.42;;
60472;SDS011;46318;52.716;6.444;2023-03-31T11:02:39;4.85;;;3.00;;
60472;SDS011;46318;52.716;6.444;2023-03-31T11:21:56;5.25;;;3.45;;
60472;SDS011;46318;52.716;6.444;2023-03-31T11:30:24;8.75;;;4.03;;
60472;SDS011;46318;52.716;6.444;2023-03-31T11:35:58;9.20;;;3.88;;
60472;SDS011;46318;52.716;6.444;2023-03-31T11:41:52;9.77;;;3.88;;
60472;SDS011;46318;52.716;6.444;2023-03-31T11:44:24;9.50;;;4.55;;
60472;SDS011;46318;52.716;6.444;2023-03-31T11:47:00;10.55;;;3.85;;
60472;SDS011;46318;52.716;6.444;2023-03-31T11:49:34;11.80;;;4.68;;
60472;SDS011;46318;52.716;6.444;2023-03-31T11:52:07;11.30;;;4.60;;
60472;SDS011;46318;52.716;6.444;2023-03-31T11:54:52;13.77;;;4.40;;
60472;SDS011;46318;52.716;6.444;2023-03-31T11:57:30;11.43;;;4.32;;
60472;SDS011;46318;52.716;6.444;2023-03-31T12:00:08;10.05;;;4.68;;
60472;SDS011;46318;52.716;6.444;2023-03-31T12:02:50;9.60;;;4.18;;
60472;SDS011;46318;52.716;6.444;2023-03-31T12:06:00;11.75;;;4.25;;
60472;SDS011;46318;52.716;6.444;2023-03-31T12:08:29;12.48;;;4.35;;
60472;SDS011;46318;52.716;6.444;2023-03-31T12:11:11;12.32;;;4.53;;
60472;SDS011;46318;52.716;6.444;2023-03-31T12:16:52;13.57;;;4.50;;
60472;SDS011;46318;52.716;6.444;2023-03-31T12:20:03;14.02;;;4.63;;
60472;SDS011;46318;52.716;6.444;2023-03-31T12:22:44;15.02;;;4.80;;
60472;SDS011;46318;52.716;6.444;2023-03-31T12:25:13;15.32;;;5.07;;
60472;SDS011;46318;52.716;6.444;2023-03-31T12:27:47;19.27;;;10.90;;
60472;SDS011;46318;52.716;6.444;2023-03-31T12:30:34;16.40;;;8.35;;
60472;SDS011;46318;52.716;6.444;2023-03-31T12:48:06;19.30;;;12.70;;
60472;SDS011;46318;52.716;6.444;2023-03-31T13:04:37;13.13;;;5.15;;
60472;SDS011;46318;52.716;6.444;2023-03-31T13:07:04;16.92;;;4.60;;
60472;SDS011;46318;52.716;6.444;2023-03-31T13:10:23;11.63;;;4.28;;
60472;SDS011;46318;52.716;6.444;2023-03-31T13:12:55;14.52;;;3.30;;
60472;SDS011;46318;52.716;6.444;2023-03-31T13:15:26;11.18;;;2.90;;
60472;SDS011;46318;52.716;6.444;2023-03-31T13:17:56;19.17;;;3.63;;
60472;SDS011;46318;52.716;6.444;2023-03-31T13:20:28;15.27;;;7.03;;
60472;SDS011;46318;52.716;6.444;2023-03-31T13:23:03;15.77;;;6.03;;
60472;SDS011;46318;52.716;6.444;2023-03-31T13:25:39;11.50;;;6.10;;
60472;SDS011;46318;52.716;6.444;2023-03-31T13:28:36;11.77;;;4.32;;
60472;SDS011;46318;52.716;6.444;2023-03-31T13:31:08;8.50;;;3.08;;
60472;SDS011;46318;52.716;6.444;2023-03-31T13:36:36;23.95;;;12.90;;
60472;SDS011;46318;52.716;6.444;2023-03-31T13:39:29;35.83;;;18.67;;
60472;SDS011;46318;52.716;6.444;2023-03-31T13:45:00;31.58;;;15.63;;
60472;SDS011;46318;52.716;6.444;2023-03-31T14:06:01;21.98;;;12.23;;
60472;SDS011;46318;52.716;6.444;2023-03-31T14:11:50;39.28;;;22.70;;
60472;SDS011;46318;52.716;6.444;2023-03-31T14:14:16;27.27;;;14.60;;
60472;SDS011;46318;52.716;6.444;2023-03-31T14:16:54;26.33;;;13.52;;
60472;SDS011;46318;52.716;6.444;2023-03-31T14:19:38;22.30;;;11.95;;
60472;SDS011;46318;52.716;6.444;2023-03-31T14:27:46;20.35;;;9.18;;
60472;SDS011;46318;52.716;6.444;2023-03-31T14:33:43;30.08;;;12.18;;
60472;SDS011;46318;52.716;6.444;2023-03-31T14:39:13;40.40;;;18.77;;
60472;SDS011;46318;52.716;6.444;2023-03-31T14:41:50;45.05;;;20.55;;
60472;SDS011;46318;52.716;6.444;2023-03-31T14:46:45;69.07;;;33.35;;
60472;SDS011;46318;52.716;6.444;2023-03-31T14:49:22;26.08;;;13.10;;
60472;SDS011;46318;52.716;6.444;2023-03-31T14:51:52;31.65;;;15.20;;
60472;SDS011;46318;52.716;6.444;2023-03-31T14:54:22;31.55;;;14.07;;
60472;SDS011;46318;52.716;6.444;2023-03-31T14:56:49;24.95;;;13.18;;
60472;SDS011;46318;52.716;6.444;2023-03-31T14:59:21;26.02;;;11.38;;
60472;SDS011;46318;52.716;6.444;2023-03-31T15:01:52;28.45;;;13.10;;
60472;SDS011;46318;52.716;6.444;2023-03-31T15:04:21;31.17;;;15.23;;
60472;SDS011;46318;52.716;6.444;2023-03-31T15:06:50;35.22;;;18.90;;
60472;SDS011;46318;52.716;6.444;2023-03-31T15:09:20;33.97;;;18.30;;
60472;SDS011;46318;52.716;6.444;2023-03-31T15:11:55;44.42;;;25.13;;
60472;SDS011;46318;52.716;6.444;2023-03-31T15:14:39;24.02;;;14.23;;
60472;SDS011;46318;52.716;6.444;2023-03-31T15:17:24;28.58;;;15.13;;
60472;SDS011;46318;52.716;6.444;2023-03-31T15:20:00;29.17;;;18.55;;
60472;SDS011;46318;52.716;6.444;2023-03-31T15:25:14;17.55;;;11.40;;
60472;SDS011;46318;52.716;6.444;2023-03-31T15:27:46;23.52;;;14.00;;
60472;SDS011;46318;52.716;6.444;2023-03-31T15:30:18;11.65;;;5.95;;
60472;SDS011;46318;52.716;6.444;2023-03-31T15:32:48;14.77;;;9.70;;
60472;SDS011;46318;52.716;6.444;2023-03-31T15:35:33;15.75;;;8.98;;
60472;SDS011;46318;52.716;6.444;2023-03-31T15:38:02;16.05;;;8.32;;
60472;SDS011;46318;52.716;6.444;2023-03-31T15:40:39;16.08;;;9.90;;
60472;SDS011;46318;52.716;6.444;2023-03-31T15:43:18;22.48;;;12.25;;
60472;SDS011;46318;52.716;6.444;2023-03-31T15:45:58;11.05;;;5.65;;
60472;SDS011;46318;52.716;6.444;2023-03-31T15:48:29;14.35;;;9.02;;
60472;SDS011;46318;52.716;6.444;2023-03-31T15:51:06;19.23;;;9.38;;
60472;SDS011;46318;52.716;6.444;2023-03-31T15:54:01;20.02;;;12.10;;
60472;SDS011;46318;52.716;6.444;2023-03-31T15:56:28;16.30;;;9.48;;
60472;SDS011;46318;52.716;6.444;2023-03-31T15:59:00;13.75;;;7.53;;
60472;SDS011;46318;52.716;6.444;2023-03-31T16:01:29;19.42;;;10.30;;
60472;SDS011;46318;52.716;6.444;2023-03-31T16:04:09;14.18;;;7.57;;
60472;SDS011;46318;52.716;6.444;2023-03-31T16:06:41;13.15;;;6.35;;
60472;SDS011;46318;52.716;6.444;2023-03-31T16:09:23;11.60;;;6.90;;
60472;SDS011;46318;52.716;6.444;2023-03-31T16:12:21;16.20;;;9.75;;
60472;SDS011;46318;52.716;6.444;2023-03-31T16:15:17;13.48;;;6.93;;
60472;SDS011;46318;52.716;6.444;2023-03-31T16:17:53;8.70;;;5.32;;
60472;SDS011;46318;52.716;6.444;2023-03-31T16:20:29;12.30;;;5.40;;
60472;SDS011;46318;52.716;6.444;2023-03-31T16:23:02;16.38;;;8.05;;
60472;SDS011;46318;52.716;6.444;2023-03-31T16:25:41;14.85;;;7.80;;
60472;SDS011;46318;52.716;6.444;2023-03-31T16:28:07;13.88;;;7.22;;
60472;SDS011;46318;52.716;6.444;2023-03-31T16:30:41;11.60;;;6.25;;
60472;SDS011;46318;52.716;6.444;2023-03-31T16:33:12;12.50;;;7.05;;
60472;SDS011;46318;52.716;6.444;2023-03-31T16:35:45;7.88;;;4.80;;
60472;SDS011;46318;52.716;6.444;2023-03-31T16:38:15;7.95;;;5.18;;
60472;SDS011;46318;52.716;6.444;2023-03-31T16:40:42;10.43;;;5.10;;
60472;SDS011;46318;52.716;6.444;2023-03-31T16:45:50;7.85;;;4.97;;
60472;SDS011;46318;52.716;6.444;2023-03-31T16:48:23;9.43;;;4.00;;
60472;SDS011;46318;52.716;6.444;2023-03-31T16:50:52;13.35;;;6.78;;
60472;SDS011;46318;52.716;6.444;2023-03-31T16:53:31;6.72;;;4.13;;
60472;SDS011;46318;52.716;6.444;2023-03-31T16:55:59;6.32;;;3.70;;
60472;SDS011;46318;52.716;6.444;2023-03-31T16:58:27;10.35;;;7.15;;
60472;SDS011;46318;52.716;6.444;2023-03-31T17:00:53;17.58;;;13.82;;
60472;SDS011;46318;52.716;6.444;2023-03-31T17:03:21;30.83;;;25.80;;
60472;SDS011;46318;52.716;6.444;2023-03-31T17:05:48;17.27;;;15.48;;
60472;SDS011;46318;52.716;6.444;2023-03-31T17:08:18;18.08;;;16.23;;
60472;SDS011;46318;52.716;6.444;2023-03-31T17:10:50;13.95;;;11.52;;
60472;SDS011;46318;52.716;6.444;2023-03-31T17:13:19;24.77;;;20.27;;
60472;SDS011;46318;52.716;6.444;2023-03-31T17:15:45;11.23;;;8.00;;
60472;SDS011;46318;52.716;6.444;2023-03-31T17:18:11;8.52;;;5.35;;
60472;SDS011;46318;52.716;6.444;2023-03-31T17:20:41;9.48;;;5.60;;
60472;SDS011;46318;52.716;6.444;2023-03-31T17:23:07;6.05;;;2.55;;
60472;SDS011;46318;52.716;6.444;2023-03-31T17:25:33;9.93;;;3.60;;
60472;SDS011;46318;52.716;6.444;2023-03-31T17:28:00;9.52;;;5.40;;
60472;SDS011;46318;52.716;6.444;2023-03-31T17:30:28;28.83;;;22.17;;
60472;SDS011;46318;52.716;6.444;2023-03-31T17:32:56;20.63;;;15.90;;
60472;SDS011;46318;52.716;6.444;2023-03-31T17:35:22;23.10;;;15.90;;
60472;SDS011;46318;52.716;6.444;2023-03-31T17:37:49;16.10;;;10.20;;
60472;SDS011;46318;52.716;6.444;2023-03-31T17:40:20;11.98;;;6.15;;
60472;SDS011;46318;52.716;6.444;2023-03-31T17:42:47;7.30;;;4.22;;
60472;SDS011;46318;52.716;6.444;2023-03-31T17:45:13;9.63;;;4.88;;
60472;SDS011;46318;52.716;6.444;2023-03-31T17:47:39;8.35;;;6.47;;
60472;SDS011;46318;52.716;6.444;2023-03-31T17:50:07;5.85;;;4.05;;
60472;SDS011;46318;52.716;6.444;2023-03-31T17:52:34;9.45;;;6.70;;
60472;SDS011;46318;52.716;6.444;2023-03-31T17:55:00;18.90;;;13.18;;
60472;SDS011;46318;52.716;6.444;2023-03-31T17:57:28;20.85;;;14.40;;
60472;SDS011;46318;52.716;6.444;2023-03-31T17:59:55;27.98;;;16.02;;
60472;SDS011;46318;52.716;6.444;2023-03-31T18:02:21;120.90;;;56.47;;
60472;SDS011;46318;52.716;6.444;2023-03-31T18:04:48;93.68;;;40.80;;